createdAt,value
2023-05-02T00:02:22.144Z,4.82
2023-05-02T00:04:49.112Z,4.22
2023-05-02T00:07:16.055Z,4.30
2023-05-02T00:09:43.104Z,3.97
2023-05-02T00:12:10.038Z,4.57
2023-05-02T00:14:36.965Z,4.05
2023-05-02T00:17:04.093Z,4.15
2023-05-02T00:19:31.090Z,4.90
2023-05-02T00:21:58.139Z,4.82
2023-05-02T00:24:25.310Z,4.18
2023-05-02T00:26:52.437Z,4.03
2023-05-02T00:29:19.461Z,4.53
2023-05-02T00:31:47.599Z,4.97
2023-05-02T00:34:14.646Z,4.75
2023-05-02T00:36:42.183Z,5.10
2023-05-02T00:39:09.796Z,4.15
2023-05-02T00:41:36.916Z,4.00
2023-05-02T00:44:03.866Z,4.30
2023-05-02T00:46:31.451Z,4.35
2023-05-02T00:48:58.577Z,4.07
2023-05-02T00:51:27.468Z,3.97
2023-05-02T00:53:54.725Z,4.15
2023-05-02T00:56:21.852Z,4.50
2023-05-02T00:58:49.043Z,4.10
2023-05-02T01:01:28.224Z,4.53
2023-05-02T01:04:05.014Z,5.22
2023-05-02T01:06:59.824Z,4.50
2023-05-02T01:09:50.056Z,3.20
2023-05-02T01:13:01.566Z,4.82
2023-05-02T01:15:28.836Z,4.55
2023-05-02T01:17:57.205Z,4.63
2023-05-02T01:20:28.110Z,4.53
2023-05-02T01:23:00.608Z,4.43
2023-05-02T01:25:37.965Z,5.07
2023-05-02T01:28:28.664Z,4.75
2023-05-02T01:30:57.321Z,4.25
2023-05-02T01:33:27.177Z,4.35
2023-05-02T01:35:56.188Z,4.70
2023-05-02T01:38:25.572Z,4.88
2023-05-02T01:40:54.221Z,5.50
2023-05-02T01:43:22.182Z,4.95
2023-05-02T01:45:51.510Z,4.55
2023-05-02T01:48:19.905Z,5.43
2023-05-02T01:50:48.836Z,5.80
2023-05-02T01:53:16.701Z,5.78
2023-05-02T01:55:46.093Z,6.28
2023-05-02T01:58:15.702Z,6.38
2023-05-02T02:00:45.589Z,6.70
2023-05-02T02:03:14.354Z,6.75
2023-05-02T02:05:41.953Z,6.47
2023-05-02T02:08:09.166Z,5.55
2023-05-02T02:10:45.394Z,5.03
2023-05-02T02:13:25.968Z,4.97
2023-05-02T02:15:58.034Z,4.57
2023-05-02T02:18:27.909Z,5.30
2023-05-02T02:20:57.418Z,5.03
2023-05-02T02:23:27.380Z,4.82
2023-05-02T02:25:56.161Z,4.53
2023-05-02T02:28:23.246Z,5.38
2023-05-02T02:30:50.436Z,5.20
2023-05-02T02:33:18.165Z,4.97
2023-05-02T02:35:50.687Z,5.00
2023-05-02T02:38:23.600Z,5.18
2023-05-02T02:40:57.800Z,5.00
2023-05-02T02:43:24.679Z,4.97
2023-05-02T02:46:14.710Z,4.53
2023-05-02T02:49:14.172Z,5.25
2023-05-02T02:52:02.829Z,4.85
2023-05-02T02:54:35.936Z,5.22
2023-05-02T02:57:16.607Z,5.55
2023-05-02T02:59:55.378Z,5.28
2023-05-02T03:02:28.449Z,5.32
2023-05-02T03:04:57.410Z,5.75
2023-05-02T03:07:27.555Z,5.63
2023-05-02T03:09:54.903Z,5.90
2023-05-02T03:12:24.351Z,5.38
2023-05-02T03:14:51.852Z,5.70
2023-05-02T03:17:26.210Z,4.90
2023-05-02T03:19:53.668Z,5.55
2023-05-02T03:22:20.709Z,4.95
2023-05-02T03:24:49.477Z,6.10
2023-05-02T03:27:16.555Z,5.15
2023-05-02T03:29:43.543Z,5.22
2023-05-02T03:32:12.303Z,5.82
2023-05-02T03:34:41.883Z,7.75
2023-05-02T03:37:09.758Z,5.57
2023-05-02T03:39:36.766Z,5.78
2023-05-02T03:42:05.777Z,7.07
2023-05-02T03:44:33.085Z,5.45
2023-05-02T03:47:00.247Z,5.40
2023-05-02T03:49:28.056Z,5.63
2023-05-02T03:51:55.295Z,6.07
2023-05-02T03:54:27.445Z,5.03
2023-05-02T03:56:55.480Z,5.68
2023-05-02T03:59:28.365Z,6.35
2023-05-02T04:01:56.718Z,6.47
2023-05-02T04:04:32.984Z,5.55
2023-05-02T04:07:00.243Z,5.70
2023-05-02T04:09:27.418Z,6.75
2023-05-02T04:11:59.299Z,5.88
2023-05-02T04:14:26.252Z,6.88
2023-05-02T04:16:55.292Z,7.30
2023-05-02T04:19:31.454Z,5.60
2023-05-02T04:21:58.731Z,7.32
2023-05-02T04:24:25.843Z,7.95
2023-05-02T04:26:53.197Z,5.90
2023-05-02T04:29:20.321Z,6.97
2023-05-02T04:31:47.873Z,6.18
2023-05-02T04:34:15.326Z,6.28
2023-05-02T04:36:48.500Z,4.65
2023-05-02T04:39:28.301Z,5.80
2023-05-02T04:42:05.632Z,3.85
2023-05-02T04:44:38.044Z,4.00
2023-05-02T04:47:05.323Z,4.80
2023-05-02T04:49:32.624Z,4.07
2023-05-02T04:51:59.574Z,3.65
2023-05-02T04:54:26.960Z,3.17
2023-05-02T04:56:54.105Z,2.83
2023-05-02T04:59:23.948Z,3.90
2023-05-02T05:01:51.025Z,4.38
2023-05-02T05:04:18.593Z,4.85
2023-05-02T05:06:47.619Z,4.05
2023-05-02T05:09:15.316Z,4.68
2023-05-02T05:11:43.815Z,3.33
2023-05-02T05:14:10.984Z,3.47
2023-05-02T05:16:40.180Z,2.80
2023-05-02T05:19:07.430Z,4.00
2023-05-02T05:21:37.483Z,3.20
2023-05-02T05:24:06.442Z,2.70
2023-05-02T05:26:33.371Z,3.17
2023-05-02T05:29:00.370Z,3.00
2023-05-02T05:31:32.683Z,2.70
2023-05-02T05:34:02.532Z,3.30
2023-05-02T05:36:31.552Z,2.35
2023-05-02T05:38:58.461Z,3.83
2023-05-02T05:41:25.459Z,2.50
2023-05-02T05:43:59.568Z,2.05
2023-05-02T05:46:27.837Z,5.65
2023-05-02T05:48:55.516Z,2.78
2023-05-02T05:51:22.697Z,2.63
2023-05-02T05:53:50.041Z,2.75
2023-05-02T05:56:18.350Z,2.67
2023-05-02T05:58:55.172Z,2.92
2023-05-02T06:01:22.230Z,2.60
2023-05-02T06:03:49.794Z,2.22
2023-05-02T06:06:18.403Z,2.35
2023-05-02T06:08:45.457Z,2.08
2023-05-02T06:11:12.606Z,2.92
2023-05-02T06:13:39.792Z,2.83
2023-05-02T06:16:08.249Z,2.22
2023-05-02T06:18:35.429Z,2.30
2023-05-02T06:21:06.546Z,2.47
2023-05-02T06:23:33.508Z,2.33
2023-05-02T06:26:01.814Z,2.33
2023-05-02T06:28:29.851Z,2.42
2023-05-02T06:31:01.618Z,2.28
2023-05-02T06:33:33.105Z,2.35
2023-05-02T06:36:01.627Z,2.08
2023-05-02T06:38:29.916Z,2.17
2023-05-02T06:40:56.954Z,2.00
2023-05-02T06:43:28.444Z,2.40
2023-05-02T06:45:56.521Z,2.63
2023-05-02T06:48:23.659Z,2.00
2023-05-02T06:50:52.331Z,2.33
2023-05-02T06:53:19.317Z,2.47
2023-05-02T06:55:47.046Z,2.38
2023-05-02T06:58:14.326Z,2.50
2023-05-02T07:00:43.772Z,2.33
2023-05-02T07:03:11.557Z,1.90
2023-05-02T07:05:38.599Z,2.28
2023-05-02T07:08:05.918Z,2.17
2023-05-02T07:10:33.095Z,2.33
2023-05-02T07:13:00.016Z,2.10
2023-05-02T07:15:27.595Z,1.70
2023-05-02T07:17:54.600Z,2.65
2023-05-02T07:20:21.622Z,2.67
2023-05-02T07:22:48.843Z,2.08
2023-05-02T07:25:15.990Z,2.13
2023-05-02T07:27:43.022Z,2.45
2023-05-02T07:30:10.233Z,1.95
2023-05-02T07:32:37.168Z,1.75
2023-05-02T07:35:04.325Z,2.42
2023-05-02T07:37:37.933Z,2.30
2023-05-02T07:40:05.512Z,1.77
2023-05-02T07:42:36.004Z,1.70
2023-05-02T07:45:03.173Z,2.13
2023-05-02T07:47:30.072Z,1.65
2023-05-02T07:49:57.161Z,2.10
2023-05-02T07:52:24.330Z,1.75
2023-05-02T07:54:51.964Z,2.22
2023-05-02T07:57:19.458Z,2.35
2023-05-02T07:59:46.546Z,1.60
2023-05-02T08:02:14.307Z,1.80
2023-05-02T08:04:41.489Z,1.58
2023-05-02T08:07:08.641Z,2.03
2023-05-02T08:09:35.817Z,2.80
2023-05-02T08:12:03.646Z,1.90
2023-05-02T08:14:32.742Z,1.90
2023-05-02T08:17:00.552Z,1.80
2023-05-02T08:19:28.059Z,1.75
2023-05-02T08:21:55.737Z,1.58
2023-05-02T08:24:22.939Z,1.35
2023-05-02T08:26:50.172Z,1.90
2023-05-02T08:29:17.488Z,1.30
2023-05-02T08:31:44.513Z,1.40
2023-05-02T08:34:11.581Z,1.48
2023-05-02T08:36:38.681Z,1.30
2023-05-02T08:39:08.199Z,1.20
2023-05-02T08:41:35.663Z,1.30
2023-05-02T08:44:04.139Z,1.30
2023-05-02T08:46:32.482Z,1.17
2023-05-02T08:49:00.682Z,1.70
2023-05-02T08:51:29.435Z,1.20
2023-05-02T08:53:58.590Z,1.02
2023-05-02T08:56:26.603Z,1.10
2023-05-02T08:58:53.605Z,1.48
2023-05-02T09:01:31.411Z,0.88
2023-05-02T09:03:59.974Z,0.90
2023-05-02T09:06:27.821Z,0.75
2023-05-02T09:08:55.300Z,1.25
2023-05-02T09:11:22.512Z,0.70
2023-05-02T09:13:52.161Z,0.93
2023-05-02T09:16:24.352Z,1.05
2023-05-02T09:18:58.964Z,1.13
2023-05-02T09:21:35.113Z,1.33
2023-05-02T09:24:04.032Z,1.20
2023-05-02T09:26:32.830Z,1.00
2023-05-02T09:29:02.215Z,1.00
2023-05-02T09:31:53.940Z,0.95
2023-05-02T09:34:22.641Z,0.80
2023-05-02T09:36:56.025Z,0.93
2023-05-02T09:39:29.285Z,0.80
2023-05-02T09:41:57.225Z,1.10
2023-05-02T09:44:26.705Z,0.95
2023-05-02T09:46:55.492Z,0.80
2023-05-02T09:49:44.864Z,0.80
2023-05-02T09:52:13.692Z,0.70
2023-05-02T09:54:40.894Z,1.20
2023-05-02T09:57:08.157Z,0.85
2023-05-02T09:59:35.161Z,0.80
2023-05-02T10:02:04.594Z,1.02
2023-05-02T10:04:33.859Z,1.10
2023-05-02T10:07:03.080Z,0.90
2023-05-02T10:09:32.842Z,1.23
2023-05-02T10:12:06.916Z,0.82
2023-05-02T10:14:41.807Z,1.25
2023-05-02T10:20:00.661Z,0.80
2023-05-02T10:22:28.343Z,0.82
2023-05-02T10:24:58.263Z,0.95
2023-05-02T10:27:26.209Z,0.77
2023-05-02T10:29:54.695Z,0.90
2023-05-02T10:32:23.948Z,0.70
2023-05-02T10:34:53.027Z,0.70
2023-05-02T10:37:20.596Z,0.90
2023-05-02T10:39:47.556Z,1.20
2023-05-02T10:42:15.055Z,0.80
2023-05-02T10:44:42.067Z,0.52
2023-05-02T10:47:23.301Z,0.82
2023-05-02T10:49:56.851Z,0.80
2023-05-02T10:52:41.647Z,0.77
2023-05-02T10:55:22.395Z,2.60
2023-05-02T10:58:01.164Z,1.13
2023-05-02T11:00:30.731Z,1.00
2023-05-02T11:02:58.083Z,0.90
2023-05-02T11:05:26.428Z,0.85
2023-05-02T11:08:15.150Z,1.00
2023-05-02T11:10:42.362Z,0.85
2023-05-02T11:13:09.589Z,0.80
2023-05-02T11:15:42.363Z,0.80
2023-05-02T11:18:12.135Z,1.27
2023-05-02T11:20:44.158Z,0.90
2023-05-02T11:23:17.030Z,0.85
2023-05-02T11:25:46.503Z,1.58
2023-05-02T11:28:38.372Z,2.33
2023-05-02T11:31:06.970Z,0.95
2023-05-02T11:33:34.047Z,1.42
2023-05-02T11:36:01.379Z,0.80
2023-05-02T11:38:39.033Z,0.73
2023-05-02T11:41:06.230Z,1.10
2023-05-02T11:43:33.374Z,1.08
2023-05-02T11:46:02.316Z,0.90
2023-05-02T11:48:31.026Z,0.90
2023-05-02T11:51:02.522Z,1.17
2023-05-02T11:53:30.185Z,0.90
2023-05-02T11:56:02.421Z,1.25
2023-05-02T11:58:32.971Z,1.02
2023-05-02T12:01:13.535Z,1.10
2023-05-02T12:03:41.660Z,1.00
2023-05-02T12:06:18.632Z,1.17
2023-05-02T12:08:46.292Z,1.45
2023-05-02T12:11:16.129Z,0.70
2023-05-02T12:13:50.777Z,1.05
2023-05-02T12:16:19.173Z,1.20
2023-05-02T12:18:47.956Z,0.98
2023-05-02T12:21:19.383Z,1.08
2023-05-02T12:23:46.786Z,1.08
2023-05-02T12:26:21.907Z,1.45
2023-05-02T12:28:51.036Z,1.10
2023-05-02T12:31:18.223Z,0.65
2023-05-02T12:33:48.389Z,0.70
2023-05-02T12:36:15.854Z,0.82
2023-05-02T12:39:08.991Z,1.00
2023-05-02T12:41:37.916Z,1.10
2023-05-02T12:44:06.294Z,0.80
2023-05-02T12:46:33.574Z,0.82
2023-05-02T12:49:12.644Z,0.77
2023-05-02T12:51:40.905Z,0.98
2023-05-02T12:54:08.149Z,1.00
2023-05-02T12:56:43.753Z,0.70
2023-05-02T12:59:26.208Z,0.70
2023-05-02T13:01:53.213Z,0.80
2023-05-02T13:04:20.486Z,1.05
2023-05-02T13:06:47.522Z,1.10
2023-05-02T13:09:16.828Z,1.30
2023-05-02T13:11:44.081Z,0.70
2023-05-02T13:14:11.857Z,0.60
2023-05-02T13:16:38.932Z,0.93
2023-05-02T13:19:06.287Z,0.75
2023-05-02T13:21:33.293Z,0.70
2023-05-02T13:24:00.303Z,0.77
2023-05-02T13:26:27.239Z,0.80
2023-05-02T13:28:54.188Z,0.80
2023-05-02T13:31:21.394Z,0.85
2023-05-02T13:33:48.473Z,0.70
2023-05-02T13:36:15.386Z,0.93
2023-05-02T13:38:42.295Z,0.98
2023-05-02T13:41:09.299Z,0.82
2023-05-02T13:43:36.446Z,0.80
2023-05-02T13:46:03.544Z,0.85
2023-05-02T13:48:30.655Z,1.08
2023-05-02T13:50:57.638Z,0.93
2023-05-02T13:53:24.655Z,1.02
2023-05-02T13:55:51.595Z,0.90
2023-05-02T13:58:18.650Z,0.77
2023-05-02T14:00:45.702Z,0.98
2023-05-02T14:03:13.743Z,1.20
2023-05-02T14:05:43.863Z,0.70
2023-05-02T14:08:11.693Z,1.33
2023-05-02T14:10:39.127Z,0.70
2023-05-02T14:13:06.112Z,1.20
2023-05-02T14:15:33.175Z,0.85
2023-05-02T14:18:00.200Z,0.93
2023-05-02T14:20:27.298Z,0.88
2023-05-02T14:22:54.419Z,0.82
2023-05-02T14:25:21.493Z,0.70
2023-05-02T14:27:48.415Z,1.08
2023-05-02T14:30:15.577Z,0.57
2023-05-02T14:32:45.640Z,0.90
2023-05-02T14:35:14.599Z,1.00
2023-05-02T14:37:45.029Z,0.55
2023-05-02T14:40:12.702Z,1.50
2023-05-02T14:42:43.459Z,0.73
2023-05-02T14:45:11.199Z,1.10
2023-05-02T14:47:41.686Z,1.00
2023-05-02T14:50:10.287Z,0.80
2023-05-02T14:52:37.346Z,0.93
2023-05-02T14:55:04.844Z,0.80
2023-05-02T14:57:32.845Z,2.25
2023-05-02T15:00:00.088Z,0.80
2023-05-02T15:02:27.330Z,0.90
2023-05-02T15:04:54.551Z,0.73
2023-05-02T15:07:22.048Z,1.00
2023-05-02T15:09:49.370Z,1.17
2023-05-02T15:12:16.348Z,1.08
2023-05-02T15:14:43.475Z,0.80
2023-05-02T15:17:10.476Z,0.88
2023-05-02T15:19:40.677Z,1.40
2023-05-02T15:22:10.594Z,0.90
2023-05-02T15:24:37.854Z,1.23
2023-05-02T15:27:04.881Z,1.17
2023-05-02T15:29:31.958Z,0.73
2023-05-02T15:31:59.148Z,0.95
2023-05-02T15:34:26.254Z,1.27
2023-05-02T15:36:53.829Z,1.10
2023-05-02T15:39:29.054Z,0.73
2023-05-02T15:41:57.132Z,1.08
2023-05-02T15:44:26.233Z,1.08
2023-05-02T15:46:53.353Z,1.10
2023-05-02T15:49:20.382Z,0.98
2023-05-02T15:52:12.972Z,0.80
2023-05-02T15:54:40.022Z,0.70
2023-05-02T15:57:07.681Z,1.10
2023-05-02T15:59:34.883Z,1.00
2023-05-02T16:02:02.009Z,0.88
2023-05-02T16:04:29.415Z,1.20
2023-05-02T16:06:56.663Z,1.38
2023-05-02T16:09:23.774Z,0.90
2023-05-02T16:11:51.390Z,1.20
2023-05-02T16:14:18.446Z,0.70
2023-05-02T16:16:45.648Z,0.98
2023-05-02T16:19:13.672Z,1.63
2023-05-02T16:21:44.975Z,1.10
2023-05-02T16:24:12.375Z,1.40
2023-05-02T16:26:39.491Z,1.10
2023-05-02T16:29:06.744Z,0.93
2023-05-02T16:31:33.889Z,1.20
2023-05-02T16:34:01.110Z,1.23
2023-05-02T16:36:29.253Z,1.20
2023-05-02T16:38:56.179Z,1.67
2023-05-02T16:41:23.383Z,1.52
2023-05-02T16:43:50.486Z,1.00
2023-05-02T16:46:18.128Z,1.13
2023-05-02T16:51:12.233Z,1.15
2023-05-02T16:53:39.223Z,1.17
2023-05-02T16:56:09.060Z,1.33
2023-05-02T16:58:36.138Z,1.35
2023-05-02T17:01:03.133Z,0.95
2023-05-02T17:03:30.276Z,1.25
2023-05-02T17:06:01.343Z,1.08
2023-05-02T17:08:28.960Z,1.10
2023-05-02T17:10:56.312Z,1.13
2023-05-02T17:13:23.645Z,1.15
2023-05-02T17:15:51.478Z,1.27
2023-05-02T17:18:18.826Z,1.27
2023-05-02T17:20:47.008Z,1.45
2023-05-02T17:23:14.691Z,1.35
2023-05-02T17:25:42.376Z,1.20
2023-05-02T17:28:09.518Z,1.58
2023-05-02T17:30:36.695Z,2.05
2023-05-02T17:33:03.880Z,1.52
2023-05-02T17:35:31.889Z,1.20
2023-05-02T17:37:58.880Z,1.63
2023-05-02T17:40:25.853Z,1.40
2023-05-02T17:42:52.778Z,1.23
2023-05-02T17:45:19.767Z,1.40
2023-05-02T17:47:46.945Z,1.25
2023-05-02T17:50:14.345Z,1.40
2023-05-02T17:52:41.604Z,1.27
2023-05-02T17:55:09.069Z,2.20
2023-05-02T17:57:36.353Z,1.80
2023-05-02T18:00:04.878Z,1.85
2023-05-02T18:02:34.724Z,1.70
2023-05-02T18:05:04.052Z,1.85
2023-05-02T18:07:31.903Z,1.58
2023-05-02T18:10:02.399Z,1.50
2023-05-02T18:12:29.692Z,1.05
2023-05-02T18:14:56.711Z,1.63
2023-05-02T18:17:24.383Z,1.58
2023-05-02T18:19:51.484Z,1.48
2023-05-02T18:22:21.365Z,2.03
2023-05-02T18:24:49.931Z,1.90
2023-05-02T18:27:17.837Z,2.00
2023-05-02T18:29:44.904Z,1.50
2023-05-02T18:32:11.978Z,1.73
2023-05-02T18:34:39.245Z,2.28
2023-05-02T18:37:07.204Z,1.30
2023-05-02T18:39:34.701Z,1.95
2023-05-02T18:42:05.169Z,2.05
2023-05-02T18:44:32.326Z,1.42
2023-05-02T18:47:01.221Z,1.77
2023-05-02T18:49:28.229Z,1.88
2023-05-02T18:51:55.201Z,1.52
2023-05-02T18:54:23.593Z,1.70
2023-05-02T18:56:50.662Z,1.77
2023-05-02T18:59:19.065Z,1.73
2023-05-02T19:01:49.546Z,2.30
2023-05-02T19:04:16.748Z,1.95
2023-05-02T19:06:43.862Z,1.75
2023-05-02T19:09:13.357Z,1.73
2023-05-02T19:11:40.776Z,1.95
2023-05-02T19:14:08.112Z,2.10
2023-05-02T19:16:36.137Z,1.90
2023-05-02T19:19:03.796Z,2.05
2023-05-02T19:21:31.621Z,1.60
2023-05-02T19:23:58.663Z,2.33
2023-05-02T19:26:25.829Z,1.20
2023-05-02T19:28:52.754Z,2.00
2023-05-02T19:31:20.969Z,1.88
2023-05-02T19:33:55.029Z,1.70
2023-05-02T19:36:24.284Z,2.00
2023-05-02T19:38:52.276Z,1.48
2023-05-02T19:41:19.988Z,2.25
2023-05-02T19:43:47.178Z,1.90
2023-05-02T19:46:15.096Z,1.90
2023-05-02T19:48:42.225Z,2.00
2023-05-02T19:51:09.658Z,1.85
2023-05-02T19:53:45.380Z,1.67
2023-05-02T19:56:12.428Z,2.55
2023-05-02T19:58:39.541Z,1.80
2023-05-02T20:01:06.687Z,1.85
2023-05-02T20:03:35.303Z,1.77
2023-05-02T20:06:02.486Z,2.08
2023-05-02T20:08:31.555Z,1.67
2023-05-02T20:10:58.688Z,2.38
2023-05-02T20:13:25.794Z,1.70
2023-05-02T20:15:53.692Z,2.00
2023-05-02T20:18:21.271Z,1.90
2023-05-02T20:20:48.312Z,1.92
2023-05-02T20:23:16.132Z,1.80
2023-05-02T20:25:44.031Z,1.95
2023-05-02T20:28:11.192Z,2.00
2023-05-02T20:30:39.999Z,2.58
2023-05-02T20:33:15.599Z,2.47
2023-05-02T20:35:44.775Z,2.30
2023-05-02T20:38:12.520Z,1.73
2023-05-02T20:40:40.943Z,1.85
2023-05-02T20:43:09.026Z,1.98
2023-05-02T20:45:36.220Z,2.03
2023-05-02T20:48:03.347Z,2.20
2023-05-02T20:50:30.651Z,2.03
2023-05-02T20:52:58.766Z,1.70
2023-05-02T20:55:26.038Z,1.88
2023-05-02T20:57:53.833Z,1.95
2023-05-02T21:00:24.446Z,2.20
2023-05-02T21:02:51.545Z,2.78
2023-05-02T21:05:18.738Z,2.30
2023-05-02T21:07:45.747Z,2.92
2023-05-02T21:10:12.893Z,3.08
2023-05-02T21:12:40.209Z,2.08
2023-05-02T21:15:08.217Z,2.22
2023-05-02T21:17:35.716Z,2.83
2023-05-02T21:20:03.220Z,2.58
2023-05-02T21:22:30.538Z,2.85
2023-05-02T21:24:57.631Z,2.25
2023-05-02T21:27:24.816Z,1.60
2023-05-02T21:29:52.056Z,2.25
2023-05-02T21:32:19.203Z,1.88
2023-05-02T21:34:46.434Z,1.83
2023-05-02T21:37:13.393Z,1.88
2023-05-02T21:39:40.452Z,2.10
2023-05-02T21:42:07.564Z,1.67
2023-05-02T21:44:34.650Z,1.70
2023-05-02T21:47:01.626Z,1.77
2023-05-02T21:49:31.539Z,1.85
2023-05-02T21:51:58.993Z,1.92
2023-05-02T21:54:26.040Z,1.48
2023-05-02T21:56:55.810Z,2.03
2023-05-02T21:59:22.802Z,1.60
2023-05-02T22:01:49.949Z,1.63
2023-05-02T22:04:18.388Z,1.63
2023-05-02T22:06:52.101Z,1.88
2023-05-02T22:09:21.161Z,1.83
2023-05-02T22:11:48.117Z,2.10
2023-05-02T22:14:15.271Z,1.98
2023-05-02T22:16:42.255Z,1.77
2023-05-02T22:19:11.659Z,1.73
2023-05-02T22:21:38.549Z,1.35
2023-05-02T22:24:06.031Z,1.63
2023-05-02T22:26:33.142Z,2.03
2023-05-02T22:29:00.256Z,2.00
2023-05-02T22:31:27.415Z,2.20
2023-05-02T22:33:54.428Z,1.83
2023-05-02T22:36:21.536Z,1.83
2023-05-02T22:38:48.538Z,1.73
2023-05-02T22:41:15.544Z,1.73
2023-05-02T22:43:42.561Z,1.95
2023-05-02T22:46:09.550Z,1.92
2023-05-02T22:48:36.726Z,1.65
2023-05-02T22:51:03.887Z,2.17
2023-05-02T22:53:31.513Z,1.80
2023-05-02T22:55:58.572Z,2.60
2023-05-02T22:58:25.641Z,1.50
2023-05-02T23:00:52.605Z,2.90
2023-05-02T23:03:19.699Z,1.60
2023-05-02T23:05:46.761Z,1.48
2023-05-02T23:08:13.787Z,1.70
2023-05-02T23:10:40.997Z,1.80
2023-05-02T23:13:08.114Z,1.50
2023-05-02T23:15:35.250Z,2.10
2023-05-02T23:18:02.454Z,2.40
2023-05-02T23:20:29.486Z,2.53
2023-05-02T23:22:56.474Z,1.65
2023-05-02T23:25:25.920Z,2.20
2023-05-02T23:27:53.266Z,1.90
2023-05-02T23:30:20.242Z,2.30
2023-05-02T23:32:47.398Z,1.75
2023-05-02T23:35:14.636Z,2.13
2023-05-02T23:37:42.068Z,2.33
2023-05-02T23:40:09.495Z,1.92
2023-05-02T23:42:40.505Z,1.70
2023-05-02T23:45:11.209Z,2.20
2023-05-02T23:47:38.729Z,1.83
2023-05-02T23:50:06.217Z,1.55
2023-05-02T23:52:35.927Z,1.98
2023-05-02T23:55:03.284Z,1.80
2023-05-02T23:57:30.932Z,3.20
2023-05-02T23:59:58.008Z,1.85
